createdAt,value
2023-05-19T00:02:05.910Z,9.20
2023-05-19T00:04:33.775Z,9.10
2023-05-19T00:07:01.250Z,9.10
2023-05-19T00:09:28.262Z,9.10
2023-05-19T00:11:56.572Z,9.10
2023-05-19T00:14:23.478Z,9.00
2023-05-19T00:16:50.367Z,9.10
2023-05-19T00:19:17.560Z,9.00
2023-05-19T00:21:44.202Z,8.90
2023-05-19T00:24:10.934Z,8.90
2023-05-19T00:26:37.549Z,8.90
2023-05-19T00:29:04.295Z,8.90
2023-05-19T00:31:31.713Z,8.90
2023-05-19T00:33:58.399Z,8.90
2023-05-19T00:36:25.278Z,8.80
2023-05-19T00:38:52.332Z,8.80
2023-05-19T00:41:19.063Z,8.80
2023-05-19T00:43:45.894Z,8.80
2023-05-19T00:46:12.575Z,8.70
2023-05-19T00:48:39.237Z,8.70
2023-05-19T00:51:06.474Z,8.70
2023-05-19T00:53:33.899Z,8.70
2023-05-19T00:56:02.022Z,8.60
2023-05-19T00:58:30.570Z,8.60
2023-05-19T01:01:03.547Z,8.60
2023-05-19T01:03:34.730Z,8.60
2023-05-19T01:06:04.986Z,8.50
2023-05-19T01:08:36.120Z,8.50
2023-05-19T01:11:02.978Z,8.50
2023-05-19T01:13:30.446Z,8.50
2023-05-19T01:16:17.401Z,8.50
2023-05-19T01:19:21.000Z,8.50
2023-05-19T01:22:13.234Z,8.40
2023-05-19T01:25:01.960Z,8.40
2023-05-19T01:27:50.346Z,8.40
2023-05-19T01:30:35.055Z,8.30
2023-05-19T01:33:07.107Z,8.30
2023-05-19T01:35:37.063Z,8.30
2023-05-19T01:38:07.742Z,8.30
2023-05-19T01:40:34.903Z,8.30
2023-05-19T01:43:02.586Z,8.30
2023-05-19T01:45:31.515Z,8.30
2023-05-19T01:48:01.082Z,8.20
2023-05-19T01:50:28.196Z,8.20
2023-05-19T01:52:54.988Z,8.20
2023-05-19T01:55:25.110Z,8.20
2023-05-19T01:57:51.617Z,8.20
2023-05-19T02:00:44.105Z,8.20
2023-05-19T02:03:43.162Z,8.20
2023-05-19T02:06:35.297Z,8.10
2023-05-19T02:09:23.543Z,8.10
2023-05-19T02:12:00.344Z,8.10
2023-05-19T02:15:00.676Z,8.10
2023-05-19T02:17:32.945Z,8.10
2023-05-19T02:19:59.849Z,8.00
2023-05-19T02:22:26.493Z,8.00
2023-05-19T02:24:53.179Z,8.00
2023-05-19T02:27:19.758Z,7.90
2023-05-19T02:29:46.286Z,7.90
2023-05-19T02:32:14.346Z,7.90
2023-05-19T02:34:42.211Z,7.90
2023-05-19T02:37:09.331Z,7.90
2023-05-19T02:39:35.961Z,7.80
2023-05-19T02:42:02.518Z,7.80
2023-05-19T02:44:29.100Z,7.80
2023-05-19T02:46:55.757Z,7.80
2023-05-19T02:49:22.313Z,7.70
2023-05-19T02:51:49.068Z,7.70
2023-05-19T02:54:15.636Z,7.70
2023-05-19T02:56:42.267Z,7.70
2023-05-19T02:59:08.951Z,7.70
2023-05-19T03:01:37.800Z,7.70
2023-05-19T03:04:04.740Z,7.70
2023-05-19T03:06:32.711Z,7.70
2023-05-19T03:08:59.360Z,7.70
2023-05-19T03:11:26.213Z,7.70
2023-05-19T03:13:52.836Z,7.70
2023-05-19T03:16:19.508Z,7.60
2023-05-19T03:18:46.413Z,7.60
2023-05-19T03:21:13.113Z,7.60
2023-05-19T03:23:39.783Z,7.60
2023-05-19T03:26:06.379Z,7.60
2023-05-19T03:28:32.977Z,7.60
2023-05-19T03:30:59.599Z,7.50
2023-05-19T03:33:27.966Z,7.50
2023-05-19T03:35:54.661Z,7.60
2023-05-19T03:38:21.232Z,7.50
2023-05-19T03:40:47.752Z,7.50
2023-05-19T03:43:15.996Z,7.60
2023-05-19T03:45:42.586Z,7.60
2023-05-19T03:48:09.197Z,7.60
2023-05-19T03:50:37.972Z,7.60
2023-05-19T03:53:04.599Z,7.60
2023-05-19T03:55:31.211Z,7.60
2023-05-19T03:57:57.898Z,7.60
2023-05-19T04:00:40.164Z,7.60
2023-05-19T04:03:07.924Z,7.60
2023-05-19T04:05:34.896Z,7.70
2023-05-19T04:08:01.548Z,7.70
2023-05-19T04:10:28.219Z,7.70
2023-05-19T04:12:54.795Z,7.70
2023-05-19T04:15:21.532Z,7.70
2023-05-19T04:17:48.350Z,7.70
2023-05-19T04:20:15.006Z,7.80
2023-05-19T04:22:41.658Z,7.80
2023-05-19T04:25:08.816Z,7.80
2023-05-19T04:27:38.964Z,7.90
2023-05-19T04:30:06.501Z,8.00
2023-05-19T04:32:33.494Z,8.00
2023-05-19T04:35:00.296Z,8.00
2023-05-19T04:37:27.021Z,8.00
2023-05-19T04:39:54.231Z,8.10
2023-05-19T04:42:20.976Z,8.20
2023-05-19T04:44:49.264Z,8.20
2023-05-19T04:47:16.109Z,8.30
2023-05-19T04:49:42.912Z,8.30
2023-05-19T04:52:11.064Z,8.30
2023-05-19T04:54:38.956Z,8.40
2023-05-19T04:57:06.349Z,8.50
2023-05-19T04:59:33.333Z,8.60
2023-05-19T05:02:00.089Z,8.60
2023-05-19T05:04:26.739Z,8.70
2023-05-19T05:06:53.432Z,8.70
2023-05-19T05:09:20.113Z,8.80
2023-05-19T05:11:47.046Z,8.80
2023-05-19T05:14:13.946Z,8.90
2023-05-19T05:16:41.717Z,9.00
2023-05-19T05:19:08.698Z,9.00
2023-05-19T05:21:35.697Z,9.10
2023-05-19T05:24:02.765Z,9.20
2023-05-19T05:26:32.997Z,9.30
2023-05-19T05:28:59.652Z,9.30
2023-05-19T05:31:26.415Z,9.40
2023-05-19T05:33:53.101Z,9.50
2023-05-19T05:36:19.794Z,9.60
2023-05-19T05:38:46.465Z,9.70
2023-05-19T05:41:13.120Z,9.90
2023-05-19T05:43:40.357Z,10.00
2023-05-19T05:46:07.109Z,10.20
2023-05-19T05:48:34.381Z,10.30
2023-05-19T05:51:01.245Z,10.50
2023-05-19T05:53:30.758Z,10.60
2023-05-19T05:55:57.916Z,10.70
2023-05-19T05:58:24.549Z,10.80
2023-05-19T06:00:53.397Z,11.00
2023-05-19T06:03:24.279Z,11.10
2023-05-19T06:05:51.378Z,11.20
2023-05-19T06:08:18.043Z,11.40
2023-05-19T06:10:46.560Z,11.50
2023-05-19T06:13:16.231Z,11.70
2023-05-19T06:15:42.909Z,12.00
2023-05-19T06:18:09.554Z,12.10
2023-05-19T06:20:36.263Z,12.40
2023-05-19T06:23:03.039Z,12.50
2023-05-19T06:25:29.699Z,12.80
2023-05-19T06:27:56.316Z,13.00
2023-05-19T06:30:22.925Z,13.10
2023-05-19T06:32:49.718Z,13.40
2023-05-19T06:35:16.411Z,13.60
2023-05-19T06:37:43.035Z,13.80
2023-05-19T06:40:10.675Z,14.20
2023-05-19T06:42:37.264Z,14.40
2023-05-19T06:45:04.084Z,14.60
2023-05-19T06:47:30.814Z,14.60
2023-05-19T06:49:57.859Z,14.90
2023-05-19T06:52:25.148Z,15.10
2023-05-19T06:54:51.753Z,15.30
2023-05-19T06:57:18.426Z,15.30
2023-05-19T06:59:46.500Z,15.40
2023-05-19T07:02:13.367Z,15.50
2023-05-19T07:04:40.070Z,15.70
2023-05-19T07:07:06.760Z,16.00
2023-05-19T07:09:33.509Z,16.30
2023-05-19T07:12:01.182Z,16.70
2023-05-19T07:14:27.861Z,17.00
2023-05-19T07:16:54.686Z,17.20
2023-05-19T07:19:21.484Z,17.40
2023-05-19T07:21:48.226Z,17.40
2023-05-19T07:24:14.906Z,17.50
2023-05-19T07:26:42.526Z,18.00
2023-05-19T07:29:09.148Z,19.00
2023-05-19T07:31:35.775Z,20.00
2023-05-19T07:34:03.516Z,20.80
2023-05-19T07:36:30.465Z,21.70
2023-05-19T07:38:57.173Z,22.70
2023-05-19T07:41:23.807Z,22.40
2023-05-19T07:43:50.421Z,22.40
2023-05-19T07:46:17.175Z,22.30
2023-05-19T07:48:43.901Z,21.60
2023-05-19T07:51:12.628Z,21.10
2023-05-19T07:53:39.241Z,20.50
2023-05-19T07:56:06.450Z,20.10
2023-05-19T07:58:33.132Z,19.80
2023-05-19T08:00:59.782Z,19.90
2023-05-19T08:03:27.269Z,19.90
2023-05-19T08:05:54.102Z,20.40
2023-05-19T08:08:21.820Z,20.80
2023-05-19T08:10:48.613Z,21.30
2023-05-19T08:13:15.383Z,21.70
2023-05-19T08:15:42.812Z,22.10
2023-05-19T08:18:09.557Z,22.40
2023-05-19T08:20:36.748Z,22.90
2023-05-19T08:23:03.471Z,23.30
2023-05-19T08:25:30.066Z,23.50
2023-05-19T08:27:56.667Z,24.60
2023-05-19T08:30:23.728Z,25.50
2023-05-19T08:32:50.377Z,26.60
2023-05-19T08:35:17.011Z,27.90
2023-05-19T08:37:43.610Z,29.30
2023-05-19T08:40:17.080Z,30.10
2023-05-19T08:42:47.508Z,30.60
2023-05-19T08:45:16.046Z,31.40
2023-05-19T08:47:46.171Z,31.90
2023-05-19T08:50:18.787Z,32.10
2023-05-19T08:55:55.204Z,32.60
2023-05-19T08:58:22.365Z,33.60
2023-05-19T09:00:49.651Z,33.10
2023-05-19T09:03:22.752Z,33.60
2023-05-19T09:05:50.717Z,33.40
2023-05-19T09:08:18.336Z,34.00
2023-05-19T09:10:45.143Z,34.10
2023-05-19T09:13:11.799Z,34.60
2023-05-19T09:15:41.183Z,34.70
2023-05-19T09:18:13.469Z,34.80
2023-05-19T09:20:42.239Z,34.70
2023-05-19T09:23:16.759Z,34.90
2023-05-19T09:25:51.160Z,35.20
2023-05-19T09:28:25.949Z,35.60
2023-05-19T09:31:04.285Z,35.60
2023-05-19T09:33:34.120Z,36.40
2023-05-19T09:36:01.189Z,36.50
2023-05-19T09:38:28.023Z,36.70
2023-05-19T09:40:58.705Z,36.60
2023-05-19T09:43:33.541Z,36.20
2023-05-19T09:46:03.475Z,35.90
2023-05-19T09:48:30.434Z,35.10
2023-05-19T09:50:58.094Z,34.30
2023-05-19T09:53:25.308Z,33.50
2023-05-19T09:55:57.804Z,32.90
2023-05-19T09:58:25.031Z,32.40
2023-05-19T10:00:52.521Z,31.90
2023-05-19T10:03:19.862Z,30.90
2023-05-19T10:05:47.474Z,30.60
2023-05-19T10:08:17.740Z,30.40
2023-05-19T10:10:47.680Z,30.20
2023-05-19T10:13:16.555Z,30.50
2023-05-19T10:15:57.310Z,30.30
2023-05-19T10:18:26.706Z,30.00
2023-05-19T10:20:54.970Z,29.70
2023-05-19T10:23:22.258Z,29.60
2023-05-19T10:25:51.119Z,29.90
2023-05-19T10:28:21.009Z,29.70
2023-05-19T10:30:50.843Z,29.30
2023-05-19T10:33:19.942Z,29.00
2023-05-19T10:36:22.958Z,28.70
2023-05-19T10:39:14.287Z,28.70
2023-05-19T10:41:47.061Z,29.10
2023-05-19T10:44:28.290Z,28.50
2023-05-19T10:46:56.727Z,28.10
2023-05-19T10:49:24.185Z,27.40
2023-05-19T10:51:52.480Z,28.20
2023-05-19T10:54:40.737Z,29.50
2023-05-19T10:57:08.264Z,30.40
2023-05-19T10:59:37.709Z,30.90
2023-05-19T11:02:05.746Z,31.30
2023-05-19T11:04:52.358Z,31.00
2023-05-19T11:07:21.684Z,30.80
2023-05-19T11:09:51.569Z,30.70
2023-05-19T11:12:25.388Z,31.10
2023-05-19T11:14:55.893Z,31.00
2023-05-19T11:17:24.986Z,31.20
2023-05-19T11:19:57.072Z,31.30
2023-05-19T11:22:26.148Z,31.10
2023-05-19T11:24:55.605Z,30.40
2023-05-19T11:27:32.588Z,30.30
2023-05-19T11:30:02.076Z,31.00
2023-05-19T11:32:30.936Z,31.30
2023-05-19T11:34:58.153Z,32.10
2023-05-19T11:37:25.435Z,32.10
2023-05-19T11:39:53.189Z,32.50
2023-05-19T11:42:20.191Z,32.90
2023-05-19T11:44:46.954Z,33.40
2023-05-19T11:47:14.805Z,33.40
2023-05-19T11:49:59.972Z,33.40
2023-05-19T11:52:27.482Z,33.60
2023-05-19T11:54:54.170Z,33.60
2023-05-19T11:57:20.952Z,33.30
2023-05-19T11:59:49.600Z,32.30
2023-05-19T12:02:21.324Z,31.50
2023-05-19T12:04:51.950Z,30.50
2023-05-19T12:07:20.323Z,29.50
2023-05-19T12:09:47.341Z,28.70
2023-05-19T12:12:18.610Z,28.10
2023-05-19T12:14:47.151Z,27.80
2023-05-19T12:17:24.037Z,27.60
2023-05-19T12:19:51.206Z,27.30
2023-05-19T12:22:18.195Z,27.10
2023-05-19T12:24:45.935Z,27.10
2023-05-19T12:27:20.465Z,26.90
2023-05-19T12:29:53.659Z,26.90
2023-05-19T12:32:26.451Z,26.60
2023-05-19T12:34:55.338Z,26.40
2023-05-19T12:37:22.150Z,26.40
2023-05-19T12:39:50.677Z,26.40
2023-05-19T12:42:17.410Z,26.20
2023-05-19T12:44:48.332Z,26.00
2023-05-19T12:47:16.706Z,25.80
2023-05-19T12:49:59.114Z,25.60
2023-05-19T12:52:27.073Z,25.30
2023-05-19T12:55:01.472Z,25.10
2023-05-19T12:57:32.365Z,24.80
2023-05-19T13:00:09.761Z,24.80
2023-05-19T13:02:55.818Z,25.00
2023-05-19T13:05:22.997Z,25.30
2023-05-19T13:08:00.283Z,25.50
2023-05-19T13:10:27.580Z,25.30
2023-05-19T13:12:55.581Z,25.30
2023-05-19T13:15:24.385Z,25.10
2023-05-19T13:17:51.722Z,25.00
2023-05-19T13:20:18.909Z,25.00
2023-05-19T13:22:45.644Z,24.70
2023-05-19T13:25:12.274Z,24.80
2023-05-19T13:27:39.033Z,24.90
2023-05-19T13:30:06.460Z,24.80
2023-05-19T13:32:33.604Z,25.10
2023-05-19T13:35:03.419Z,25.30
2023-05-19T13:37:30.477Z,25.40
2023-05-19T13:40:00.200Z,25.60
2023-05-19T13:42:26.787Z,25.60
2023-05-19T13:44:56.324Z,25.50
2023-05-19T13:47:26.033Z,25.70
2023-05-19T13:49:53.013Z,25.80
2023-05-19T13:52:21.309Z,25.80
2023-05-19T13:54:48.624Z,26.00
2023-05-19T13:57:16.270Z,26.00
2023-05-19T13:59:57.599Z,25.90
2023-05-19T14:02:27.292Z,26.00
2023-05-19T14:04:54.211Z,25.90
2023-05-19T14:07:21.210Z,25.60
2023-05-19T14:09:47.835Z,25.40
2023-05-19T14:12:16.196Z,25.40
2023-05-19T14:14:43.359Z,25.50
2023-05-19T14:17:09.928Z,25.50
2023-05-19T14:19:36.451Z,25.60
2023-05-19T14:22:03.226Z,25.70
2023-05-19T14:24:30.448Z,25.50
2023-05-19T14:26:57.061Z,25.10
2023-05-19T14:29:23.771Z,24.60
2023-05-19T14:31:50.430Z,24.40
2023-05-19T14:34:20.683Z,24.30
2023-05-19T14:36:48.745Z,24.20
2023-05-19T14:39:15.709Z,24.30
2023-05-19T14:41:42.449Z,24.40
2023-05-19T14:44:09.072Z,24.40
2023-05-19T14:46:36.025Z,24.40
2023-05-19T14:49:03.456Z,24.50
2023-05-19T14:51:30.095Z,24.60
2023-05-19T14:53:56.714Z,24.70
2023-05-19T14:56:23.426Z,24.40
2023-05-19T14:58:50.196Z,24.30
2023-05-19T15:01:16.916Z,24.10
2023-05-19T15:03:43.579Z,24.10
2023-05-19T15:06:10.823Z,23.90
2023-05-19T15:08:38.118Z,23.90
2023-05-19T15:11:05.055Z,23.60
2023-05-19T15:13:31.638Z,23.70
2023-05-19T15:16:12.553Z,23.40
2023-05-19T15:18:44.173Z,23.20
2023-05-19T15:21:10.880Z,23.10
2023-05-19T15:23:37.468Z,22.90
2023-05-19T15:26:04.333Z,22.70
2023-05-19T15:28:30.895Z,22.60
2023-05-19T15:30:58.092Z,22.50
2023-05-19T15:33:24.664Z,22.40
2023-05-19T15:35:52.125Z,22.30
2023-05-19T15:38:20.498Z,22.30
2023-05-19T15:40:47.322Z,22.40
2023-05-19T15:43:14.221Z,22.30
2023-05-19T15:45:40.998Z,21.90
2023-05-19T15:48:07.985Z,21.70
2023-05-19T15:50:34.890Z,21.60
2023-05-19T15:53:01.972Z,21.50
2023-05-19T15:55:28.614Z,21.40
2023-05-19T15:57:55.143Z,21.40
2023-05-19T16:00:21.839Z,21.40
2023-05-19T16:02:48.584Z,21.40
2023-05-19T16:05:15.276Z,21.50
2023-05-19T16:07:42.133Z,21.20
2023-05-19T16:10:09.296Z,21.10
2023-05-19T16:12:36.825Z,21.00
2023-05-19T16:15:03.804Z,21.00
2023-05-19T16:17:30.718Z,20.90
2023-05-19T16:19:57.419Z,20.90
2023-05-19T16:22:24.794Z,20.90
2023-05-19T16:24:52.139Z,20.90
2023-05-19T16:27:19.027Z,21.10
2023-05-19T16:29:45.738Z,21.00
2023-05-19T16:32:12.750Z,21.10
2023-05-19T16:34:39.780Z,21.20
2023-05-19T16:37:06.751Z,21.20
2023-05-19T16:39:35.960Z,21.30
2023-05-19T16:42:03.347Z,21.20
2023-05-19T16:44:29.989Z,21.20
2023-05-19T16:46:56.610Z,21.30
2023-05-19T16:49:23.169Z,21.20
2023-05-19T16:51:49.992Z,21.30
2023-05-19T16:54:16.839Z,21.40
2023-05-19T16:56:43.494Z,21.40
2023-05-19T16:59:10.198Z,21.30
2023-05-19T17:01:36.870Z,21.20
2023-05-19T17:04:03.559Z,21.20
2023-05-19T17:06:31.164Z,21.10
2023-05-19T17:08:57.783Z,21.00
2023-05-19T17:11:24.540Z,20.90
2023-05-19T17:13:51.711Z,20.80
2023-05-19T17:16:18.403Z,20.70
2023-05-19T17:18:45.248Z,20.50
2023-05-19T17:21:11.975Z,20.30
2023-05-19T17:23:38.578Z,20.20
2023-05-19T17:26:05.918Z,20.00
2023-05-19T17:28:32.586Z,19.80
2023-05-19T17:30:59.163Z,19.80
2023-05-19T17:33:25.916Z,19.70
2023-05-19T17:35:52.598Z,19.70
2023-05-19T17:38:19.387Z,19.80
2023-05-19T17:40:46.055Z,19.70
2023-05-19T17:43:12.676Z,19.60
2023-05-19T17:45:39.234Z,19.50
2023-05-19T17:48:06.317Z,19.50
2023-05-19T17:50:33.209Z,19.40
2023-05-19T17:53:00.438Z,19.30
2023-05-19T17:55:29.717Z,19.30
2023-05-19T17:57:57.237Z,19.30
2023-05-19T18:00:25.047Z,19.30
2023-05-19T18:02:52.283Z,19.20
2023-05-19T18:05:19.392Z,19.10
2023-05-19T18:07:46.149Z,19.00
2023-05-19T18:10:15.371Z,18.90
2023-05-19T18:12:42.025Z,18.80
2023-05-19T18:15:08.920Z,18.70
2023-05-19T18:17:35.646Z,18.60
2023-05-19T18:20:02.588Z,18.50
2023-05-19T18:22:29.173Z,18.40
2023-05-19T18:24:57.451Z,18.30
2023-05-19T18:27:24.116Z,18.20
2023-05-19T18:29:50.816Z,18.10
2023-05-19T18:32:17.839Z,18.00
2023-05-19T18:34:44.467Z,17.90
2023-05-19T18:37:11.707Z,17.90
2023-05-19T18:39:38.340Z,17.80
2023-05-19T18:42:05.829Z,17.70
2023-05-19T18:44:33.839Z,17.70
2023-05-19T18:47:00.944Z,17.60
2023-05-19T18:49:27.597Z,17.50
2023-05-19T18:51:54.179Z,17.40
2023-05-19T18:54:21.660Z,17.40
2023-05-19T18:56:48.282Z,17.30
2023-05-19T18:59:14.902Z,17.30
2023-05-19T19:01:42.694Z,17.20
2023-05-19T19:04:09.747Z,17.20
2023-05-19T19:06:36.413Z,17.10
2023-05-19T19:09:03.337Z,17.00
2023-05-19T19:11:29.863Z,16.90
2023-05-19T19:13:56.629Z,16.90
2023-05-19T19:16:23.327Z,16.80
2023-05-19T19:18:50.214Z,16.70
2023-05-19T19:21:19.129Z,16.60
2023-05-19T19:23:46.107Z,16.60
2023-05-19T19:26:12.752Z,16.50
2023-05-19T19:28:39.320Z,16.50
2023-05-19T19:31:05.937Z,16.40
2023-05-19T19:33:32.697Z,16.40
2023-05-19T19:35:59.381Z,16.30
2023-05-19T19:38:26.023Z,16.20
2023-05-19T19:40:52.648Z,16.20
2023-05-19T19:43:19.349Z,16.10
2023-05-19T19:45:46.039Z,16.00
2023-05-19T19:48:12.809Z,16.10
2023-05-19T19:50:39.551Z,16.00
2023-05-19T19:53:06.472Z,16.00
2023-05-19T19:55:33.147Z,16.00
2023-05-19T19:57:59.749Z,16.00
2023-05-19T20:00:26.451Z,15.90
2023-05-19T20:03:04.326Z,15.90
2023-05-19T20:05:31.989Z,15.90
2023-05-19T20:07:58.738Z,15.90
2023-05-19T20:10:25.464Z,15.80
2023-05-19T20:12:52.279Z,15.80
2023-05-19T20:15:18.950Z,15.80
2023-05-19T20:17:45.688Z,15.70
2023-05-19T20:20:12.666Z,15.70
2023-05-19T20:22:39.662Z,15.70
2023-05-19T20:25:06.596Z,15.70
2023-05-19T20:27:33.240Z,15.70
2023-05-19T20:29:59.879Z,15.70
2023-05-19T20:32:26.616Z,15.60
2023-05-19T20:34:53.259Z,15.60
2023-05-19T20:37:21.540Z,15.60
2023-05-19T20:39:48.146Z,15.50
2023-05-19T20:42:14.823Z,15.50
2023-05-19T20:44:41.496Z,15.50
2023-05-19T20:47:08.423Z,15.40
2023-05-19T20:49:35.417Z,15.30
2023-05-19T20:52:02.281Z,15.20
2023-05-19T20:54:28.964Z,15.20
2023-05-19T20:56:55.677Z,15.10
2023-05-19T20:59:22.293Z,15.00
2023-05-19T21:01:49.065Z,14.90
2023-05-19T21:04:15.844Z,14.80
2023-05-19T21:06:42.633Z,14.70
2023-05-19T21:09:10.441Z,14.60
2023-05-19T21:11:37.092Z,14.50
2023-05-19T21:14:04.170Z,14.50
2023-05-19T21:16:31.366Z,14.40
2023-05-19T21:18:58.234Z,14.40
2023-05-19T21:21:25.170Z,14.30
2023-05-19T21:23:51.908Z,14.20
2023-05-19T21:26:18.507Z,14.20
2023-05-19T21:28:45.175Z,14.10
2023-05-19T21:31:11.809Z,14.10
2023-05-19T21:33:38.604Z,14.00
2023-05-19T21:36:05.779Z,13.90
2023-05-19T21:38:32.389Z,13.90
2023-05-19T21:40:59.036Z,13.80
2023-05-19T21:43:26.025Z,13.80
2023-05-19T21:45:52.655Z,13.70
2023-05-19T21:48:19.581Z,13.70
2023-05-19T21:50:46.203Z,13.60
2023-05-19T21:53:12.805Z,13.60
2023-05-19T21:55:39.507Z,13.50
2023-05-19T21:58:06.107Z,13.60
2023-05-19T22:00:32.977Z,13.50
2023-05-19T22:02:59.928Z,13.50
2023-05-19T22:05:28.766Z,13.50
2023-05-19T22:07:55.609Z,13.40
2023-05-19T22:10:22.197Z,13.40
2023-05-19T22:12:48.820Z,13.30
2023-05-19T22:15:15.853Z,13.30
2023-05-19T22:17:42.557Z,13.20
2023-05-19T22:20:09.534Z,13.20
2023-05-19T22:22:36.375Z,13.20
2023-05-19T22:25:03.867Z,13.20
2023-05-19T22:27:30.640Z,13.20
2023-05-19T22:29:59.518Z,13.20
2023-05-19T22:32:26.339Z,13.20
2023-05-19T22:34:52.948Z,13.20
2023-05-19T22:37:21.277Z,13.20
2023-05-19T22:39:47.906Z,13.10
2023-05-19T22:42:14.632Z,13.10
2023-05-19T22:44:41.243Z,13.10
2023-05-19T22:47:13.242Z,13.10
2023-05-19T22:49:41.337Z,13.10
2023-05-19T22:52:09.755Z,13.00
2023-05-19T22:54:36.781Z,13.00
2023-05-19T22:57:03.710Z,13.00
2023-05-19T22:59:30.831Z,12.90
2023-05-19T23:01:57.434Z,12.90
2023-05-19T23:04:24.080Z,12.90
2023-05-19T23:06:50.881Z,13.00
2023-05-19T23:09:17.976Z,13.00
2023-05-19T23:11:45.086Z,13.00
2023-05-19T23:14:11.644Z,13.00
2023-05-19T23:16:38.273Z,13.00
2023-05-19T23:19:05.261Z,13.00
2023-05-19T23:21:32.447Z,13.10
2023-05-19T23:23:59.466Z,13.10
2023-05-19T23:26:26.849Z,13.10
2023-05-19T23:28:53.410Z,13.10
2023-05-19T23:31:20.047Z,13.20
2023-05-19T23:33:46.662Z,13.20
2023-05-19T23:36:13.538Z,13.20
2023-05-19T23:38:40.240Z,13.20
2023-05-19T23:41:06.874Z,13.20
2023-05-19T23:43:33.553Z,13.20
2023-05-19T23:46:00.527Z,13.20
2023-05-19T23:48:28.830Z,13.20
2023-05-19T23:50:55.676Z,13.20
2023-05-19T23:53:22.255Z,13.10
2023-05-19T23:55:48.963Z,13.10
2023-05-19T23:58:15.951Z,13.10
